Terminal Aerodrome Forecast
Issued by NWS

Home | Current Version | Previous Version | Text Only | Print | Product List | Glossary On
Versions: 1 2 3 4 5 6 7 8 9 10 11 12 13
157
FTUS43 KBIS 271720
TAFMOT
TAF
KMOT 271720Z 2718/2818 17019G28KT P6SM FEW100 SCT250
     FM280000 16011KT P6SM VCTS BKN200CB
     FM280200 26009KT P6SM VCTS BKN150CB
     FM280400 30010KT P6SM BKN120
     FM281000 30012KT P6SM SCT150=

USA.gov is the U.S. government's official web portal to all federal, state and local government web resources and services.